Time;durP1;ratioP1;P1;durP2;ratioP2;P2;SDS_P1;SDS_P2;PMS_P1;PMS_P2;Temp;Humidity;BMP_temperature;BMP_pressure;BME280_temperature;BME280_humidity;BME280_pressure;Samples;Min_cycle;Max_cycle;Signal;HPM_P1;HPM_P2
2024/01/07 00:01:59;;;;;;;6.43;4.83;;;3.60;99.90;;;;;;5050390;28;20165;-75
2024/01/07 00:04:24;;;;;;;6.13;4.67;;;3.50;99.90;;;;;;5043502;28;20169;-73
2024/01/07 00:06:50;;;;;;;9.50;4.90;;;3.50;99.90;;;;;;5050822;28;20580;-73
2024/01/07 00:09:16;;;;;;;6.67;5.00;;;3.40;99.90;;;;;;5051829;28;20261;-74
2024/01/07 00:11:42;;;;;;;6.50;4.80;;;3.40;99.90;;;;;;5042762;28;20182;-73
2024/01/07 00:14:07;;;;;;;8.23;5.07;;;3.20;99.90;;;;;;5046122;28;20223;-74
2024/01/07 00:16:34;;;;;;;6.87;4.67;;;3.30;99.90;;;;;;5052078;28;20170;-74
2024/01/07 00:18:59;;;;;;;10.30;5.30;;;3.20;99.90;;;;;;5051854;28;20248;-74
2024/01/07 00:21:25;;;;;;;6.07;5.00;;;3.20;99.90;;;;;;5050268;28;20201;-75
2024/01/07 00:23:51;;;;;;;6.37;4.90;;;3.20;99.90;;;;;;5051929;28;20169;-74
2024/01/07 00:26:16;;;;;;;8.00;5.20;;;3.20;99.90;;;;;;5050665;28;20207;-75
2024/01/07 00:28:42;;;;;;;6.67;4.60;;;3.20;99.90;;;;;;5051782;28;20630;-76
2024/01/07 00:31:09;;;;;;;6.10;5.20;;;3.20;99.90;;;;;;5051830;28;20509;-74
2024/01/07 00:33:37;;;;;;;8.07;5.53;;;3.20;99.90;;;;;;5050436;28;20224;-75
2024/01/07 00:36:03;;;;;;;10.23;6.10;;;3.20;99.90;;;;;;5050406;28;20180;-75
2024/01/07 00:38:29;;;;;;;9.30;5.63;;;3.20;99.90;;;;;;5051651;28;20169;-76
2024/01/07 00:40:54;;;;;;;8.87;5.60;;;3.10;99.90;;;;;;5051602;28;20173;-76
2024/01/07 00:43:20;;;;;;;6.90;5.57;;;3.20;99.90;;;;;;5051561;28;20231;-76
2024/01/07 00:45:45;;;;;;;7.10;5.20;;;3.10;99.90;;;;;;5051565;28;20219;-76
2024/01/07 00:48:11;;;;;;;6.60;4.77;;;3.00;99.90;;;;;;5051493;28;20169;-76
2024/01/07 00:50:37;;;;;;;5.97;4.63;;;3.10;99.90;;;;;;5051317;28;20217;-75
2024/01/07 00:53:03;;;;;;;5.60;4.60;;;3.10;99.90;;;;;;5051329;28;20212;-76
2024/01/07 00:55:29;;;;;;;10.07;5.10;;;3.00;99.90;;;;;;5051505;28;20206;-76
2024/01/07 00:57:54;;;;;;;11.83;5.40;;;3.00;99.90;;;;;;5051653;28;20180;-76
2024/01/07 01:00:20;;;;;;;8.93;4.90;;;3.00;99.90;;;;;;5051344;28;20165;-76
2024/01/07 01:02:46;;;;;;;5.00;4.50;;;3.00;99.90;;;;;;5051308;28;20166;-76
2024/01/07 01:05:12;;;;;;;6.83;4.77;;;2.90;99.90;;;;;;5037124;28;20256;-76
2024/01/07 01:07:37;;;;;;;7.07;4.80;;;2.90;99.90;;;;;;5051053;28;20712;-76
2024/01/07 01:10:03;;;;;;;7.20;4.90;;;2.90;99.90;;;;;;5051257;28;20709;-76
2024/01/07 01:12:29;;;;;;;7.53;4.73;;;2.80;99.90;;;;;;5051085;28;20193;-76
2024/01/07 01:14:55;;;;;;;6.23;4.63;;;2.90;99.90;;;;;;5051178;28;20271;-76
2024/01/07 01:17:20;;;;;;;6.20;4.77;;;2.80;99.90;;;;;;5051094;28;20173;-76
2024/01/07 01:19:46;;;;;;;7.47;5.00;;;2.80;99.90;;;;;;5050941;28;20177;-77
2024/01/07 01:22:12;;;;;;;7.37;4.87;;;2.80;99.90;;;;;;5040575;28;20595;-76
2024/01/07 01:24:38;;;;;;;7.23;5.23;;;2.80;99.90;;;;;;5030838;28;20186;-76
2024/01/07 01:27:04;;;;;;;6.73;4.90;;;2.70;99.90;;;;;;5030980;28;20240;-77
2024/01/07 01:29:29;;;;;;;8.70;5.40;;;2.80;99.90;;;;;;5031199;28;20166;-77
2024/01/07 01:31:55;;;;;;;7.30;5.13;;;2.70;99.90;;;;;;5031086;28;20224;-76
2024/01/07 01:34:21;;;;;;;7.03;5.27;;;2.70;99.90;;;;;;5034128;28;20687;-77
2024/01/07 01:36:47;;;;;;;5.90;5.07;;;2.60;99.90;;;;;;5034964;28;20173;-76
2024/01/07 01:39:12;;;;;;;7.40;5.50;;;2.60;99.90;;;;;;5035084;28;20177;-76
2024/01/07 01:41:39;;;;;;;7.47;5.27;;;2.60;99.90;;;;;;5035107;28;20185;-76
2024/01/07 01:44:05;;;;;;;9.10;5.63;;;2.60;99.90;;;;;;5035108;28;20216;-76
2024/01/07 01:46:31;;;;;;;6.57;5.40;;;2.60;99.90;;;;;;5035064;28;20162;-76
2024/01/07 01:48:58;;;;;;;6.10;5.10;;;2.70;99.90;;;;;;5035082;28;20193;-76
2024/01/07 01:51:25;;;;;;;9.53;5.63;;;2.60;99.90;;;;;;5034732;28;20252;-76
2024/01/07 01:53:51;;;;;;;7.33;5.80;;;2.60;99.90;;;;;;5035046;28;20210;-76
2024/01/07 01:56:20;;;;;;;9.97;5.70;;;2.50;99.90;;;;;;5035098;28;20173;-76
2024/01/07 01:58:47;;;;;;;9.07;5.47;;;2.50;99.90;;;;;;5034658;28;20213;-75
2024/01/07 02:01:13;;;;;;;7.53;5.57;;;2.40;99.90;;;;;;5034527;28;20189;-75
2024/01/07 02:03:39;;;;;;;6.73;5.13;;;2.40;99.90;;;;;;5038279;28;20169;-75
2024/01/07 02:06:05;;;;;;;8.73;5.57;;;2.40;99.90;;;;;;5054680;28;20582;-74
2024/01/07 02:08:31;;;;;;;7.17;5.50;;;2.50;99.90;;;;;;5054784;28;20177;-74
2024/01/07 02:10:57;;;;;;;7.90;6.00;;;2.40;99.90;;;;;;5054501;28;20169;-74
2024/01/07 02:13:22;;;;;;;7.73;5.53;;;2.40;99.90;;;;;;5053100;28;20199;-74
2024/01/07 02:15:48;;;;;;;8.13;5.97;;;2.40;99.90;;;;;;5053160;28;20189;-74
2024/01/07 02:18:14;;;;;;;7.77;5.80;;;2.30;99.90;;;;;;5054378;28;20250;-74
2024/01/07 02:20:40;;;;;;;8.77;5.83;;;2.30;99.90;;;;;;5054233;28;20199;-74
2024/01/07 02:23:05;;;;;;;8.57;6.10;;;2.40;99.90;;;;;;5053001;28;20181;-74
2024/01/07 02:25:37;;;;;;;6.77;5.60;;;2.50;99.90;;;;;;5054248;28;20200;-74
2024/01/07 02:28:04;;;;;;;7.57;5.47;;;2.50;99.90;;;;;;5054331;28;20256;-74
2024/01/07 02:30:29;;;;;;;6.87;5.40;;;2.60;99.90;;;;;;5054037;28;20636;-74
2024/01/07 02:32:55;;;;;;;5.70;5.10;;;2.70;99.90;;;;;;5053988;28;20188;-74
2024/01/07 02:35:21;;;;;;;7.03;5.17;;;2.80;99.90;;;;;;5052891;28;20177;-74
2024/01/07 02:37:46;;;;;;;6.33;5.10;;;2.90;99.90;;;;;;5054204;28;20182;-74
2024/01/07 02:40:12;;;;;;;7.47;5.00;;;2.90;99.90;;;;;;5060548;28;20173;-75
2024/01/07 02:42:38;;;;;;;6.13;4.80;;;3.00;99.90;;;;;;5054983;28;20180;-76
2024/01/07 02:45:04;;;;;;;6.37;5.00;;;3.00;99.90;;;;;;5055099;28;20175;-76
2024/01/07 02:47:29;;;;;;;6.93;5.03;;;3.00;99.90;;;;;;5053851;28;20169;-76
2024/01/07 02:49:55;;;;;;;6.97;5.23;;;3.10;99.90;;;;;;5053657;28;20169;-75
2024/01/07 02:52:21;;;;;;;7.47;5.17;;;3.10;99.90;;;;;;5053806;28;20172;-76
2024/01/07 02:54:46;;;;;;;7.00;5.10;;;3.10;99.90;;;;;;5052419;28;20213;-75
2024/01/07 02:57:12;;;;;;;6.33;5.17;;;3.10;99.90;;;;;;5053647;28;20256;-75
2024/01/07 02:59:37;;;;;;;6.33;5.40;;;3.20;99.90;;;;;;5053531;28;20212;-76
2024/01/07 03:02:03;;;;;;;6.67;5.33;;;3.20;99.90;;;;;;5053598;28;20219;-76
2024/01/07 03:04:29;;;;;;;11.33;6.40;;;3.20;99.90;;;;;;5053325;28;20204;-75
2024/01/07 03:06:54;;;;;;;7.60;5.63;;;3.20;99.90;;;;;;5053444;28;20183;-76
2024/01/07 03:09:20;;;;;;;6.73;5.60;;;3.20;99.90;;;;;;5053429;28;20277;-75
2024/01/07 03:11:46;;;;;;;8.03;5.90;;;3.30;99.90;;;;;;5053521;28;20212;-73
2024/01/07 03:14:12;;;;;;;9.43;6.17;;;3.30;99.90;;;;;;5053281;28;20205;-73
2024/01/07 03:16:37;;;;;;;8.10;5.97;;;3.30;99.90;;;;;;5053337;28;20520;-73
2024/01/07 03:19:04;;;;;;;7.23;6.23;;;3.30;99.90;;;;;;5053256;28;20170;-74
2024/01/07 03:21:30;;;;;;;7.10;5.90;;;3.40;99.90;;;;;;5053271;28;20184;-74
2024/01/07 03:23:55;;;;;;;7.73;6.50;;;3.40;99.90;;;;;;5053120;28;20189;-75
2024/01/07 03:26:21;;;;;;;8.33;6.13;;;3.40;99.90;;;;;;5053161;28;20200;-75
2024/01/07 03:28:47;;;;;;;12.23;6.80;;;3.50;99.90;;;;;;5053139;28;20173;-75
2024/01/07 03:31:14;;;;;;;8.17;6.37;;;3.50;99.90;;;;;;5053075;28;20174;-74
2024/01/07 03:33:41;;;;;;;7.17;6.40;;;3.50;99.90;;;;;;5052910;28;20200;-74
2024/01/07 03:36:11;;;;;;;10.47;7.10;;;3.50;99.90;;;;;;5053014;28;20248;-76
2024/01/07 03:38:38;;;;;;;8.20;6.17;;;3.50;99.90;;;;;;5035548;28;20200;-77
2024/01/07 03:41:04;;;;;;;6.67;6.00;;;3.50;99.90;;;;;;5040689;28;20173;-75
2024/01/07 03:43:30;;;;;;;8.53;6.13;;;3.50;99.90;;;;;;5052605;28;20543;-73
2024/01/07 03:45:56;;;;;;;8.70;6.30;;;3.60;99.90;;;;;;5051222;28;20180;-74
2024/01/07 03:48:22;;;;;;;8.73;6.70;;;3.60;99.90;;;;;;5051354;28;20179;-74
2024/01/07 03:50:48;;;;;;;7.77;6.27;;;3.60;99.90;;;;;;5052121;28;20323;-74
2024/01/07 03:53:14;;;;;;;9.73;6.53;;;3.60;99.90;;;;;;5052369;28;20523;-74
2024/01/07 03:55:40;;;;;;;9.93;6.17;;;3.60;99.90;;;;;;5051939;28;20177;-74
2024/01/07 03:58:06;;;;;;;8.03;6.47;;;3.60;99.90;;;;;;5052275;28;20180;-74
2024/01/07 04:00:32;;;;;;;8.00;6.60;;;3.60;99.90;;;;;;5052369;28;20183;-74
2024/01/07 04:02:58;;;;;;;11.60;6.90;;;3.70;99.90;;;;;;5050857;28;20165;-74
2024/01/07 04:05:23;;;;;;;9.83;6.50;;;3.60;99.90;;;;;;5052200;28;20169;-75
2024/01/07 04:07:49;;;;;;;11.17;6.70;;;3.70;99.90;;;;;;5050920;28;20235;-74
2024/01/07 04:10:18;;;;;;;8.97;6.43;;;3.70;99.90;;;;;;5050924;28;20543;-74
2024/01/07 04:12:44;;;;;;;9.83;6.40;;;3.70;99.90;;;;;;5052089;28;20260;-75
2024/01/07 04:15:12;;;;;;;9.70;6.47;;;3.70;99.90;;;;;;5051811;28;20290;-74
2024/01/07 04:17:38;;;;;;;9.37;6.70;;;3.70;99.90;;;;;;5050825;28;20169;-75
2024/01/07 04:20:04;;;;;;;7.53;6.53;;;3.70;99.90;;;;;;5051990;28;20165;-74
2024/01/07 04:22:29;;;;;;;8.60;6.50;;;3.80;99.90;;;;;;5052115;28;20184;-75
2024/01/07 04:24:55;;;;;;;7.87;6.97;;;3.70;99.90;;;;;;5052053;28;20185;-75
2024/01/07 04:27:21;;;;;;;8.40;6.70;;;3.80;99.90;;;;;;5051852;28;20175;-75
2024/01/07 04:29:46;;;;;;;8.00;6.67;;;3.80;99.90;;;;;;5051714;28;20181;-76
2024/01/07 04:32:12;;;;;;;11.97;7.13;;;3.80;99.90;;;;;;5051686;28;20170;-76
2024/01/07 04:34:38;;;;;;;7.73;6.50;;;3.80;99.90;;;;;;5051596;28;20231;-76
2024/01/07 04:37:03;;;;;;;8.57;7.03;;;3.90;99.90;;;;;;5051654;28;20192;-76
2024/01/07 04:39:29;;;;;;;9.57;6.60;;;3.90;99.90;;;;;;5051756;28;20528;-76
2024/01/07 04:41:55;;;;;;;10.37;7.20;;;3.90;99.90;;;;;;5050346;28;20571;-76
2024/01/07 04:44:20;;;;;;;8.83;7.33;;;3.90;99.90;;;;;;5035088;28;20225;-75
2024/01/07 04:46:48;;;;;;;11.03;6.97;;;3.90;99.90;;;;;;5048313;28;20763;-75
2024/01/07 04:49:14;;;;;;;8.50;7.07;;;3.90;99.90;;;;;;5046056;28;20194;-75
2024/01/07 04:51:40;;;;;;;10.90;7.60;;;3.90;99.90;;;;;;5039383;28;20216;-75
2024/01/07 04:54:08;;;;;;;9.50;7.30;;;3.90;99.90;;;;;;5050510;28;20225;-75
2024/01/07 04:56:34;;;;;;;9.50;7.63;;;3.90;99.90;;;;;;5051258;28;20181;-75
2024/01/07 04:59:00;;;;;;;8.73;7.77;;;4.00;99.90;;;;;;5033150;28;20196;-75
2024/01/07 05:01:25;;;;;;;13.43;8.47;;;4.00;99.90;;;;;;5048182;28;20257;-75
2024/01/07 05:03:51;;;;;;;9.17;8.00;;;4.00;99.90;;;;;;5031701;28;20185;-74
2024/01/07 05:06:17;;;;;;;11.00;8.33;;;4.00;99.90;;;;;;5045441;28;20177;-75
2024/01/07 05:08:43;;;;;;;11.37;8.23;;;4.00;99.90;;;;;;5032403;28;20544;-75
2024/01/07 05:11:08;;;;;;;12.10;8.40;;;4.00;99.90;;;;;;5031610;28;20611;-75
2024/01/07 05:13:35;;;;;;;10.67;8.30;;;4.00;99.90;;;;;;5031489;28;20335;-74
2024/01/07 05:16:02;;;;;;;12.83;8.63;;;4.00;99.90;;;;;;5031256;28;20185;-75
2024/01/07 05:18:28;;;;;;;11.93;8.40;;;4.00;99.90;;;;;;5031956;28;20190;-74
2024/01/07 05:20:53;;;;;;;11.20;8.40;;;4.00;99.90;;;;;;5033790;28;20170;-75
2024/01/07 05:23:19;;;;;;;12.47;8.57;;;3.90;99.90;;;;;;5038484;28;20170;-74
2024/01/07 05:25:45;;;;;;;9.97;8.67;;;4.00;99.90;;;;;;5032949;28;20223;-74
2024/01/07 05:28:14;;;;;;;10.60;8.30;;;4.00;99.90;;;;;;5031011;28;20178;-77
2024/01/07 05:30:43;;;;;;;11.80;8.77;;;4.00;99.90;;;;;;5037907;28;20306;-76
2024/01/07 05:33:09;;;;;;;11.90;8.87;;;4.00;99.90;;;;;;5038581;28;20202;-76
2024/01/07 05:35:35;;;;;;;12.73;8.93;;;4.00;99.90;;;;;;5036760;28;20269;-76
2024/01/07 05:38:01;;;;;;;11.00;8.87;;;3.90;99.90;;;;;;5046532;28;21082;-76
2024/01/07 05:40:26;;;;;;;12.90;8.60;;;3.90;99.90;;;;;;5039671;28;20184;-74
2024/01/07 05:42:52;;;;;;;10.53;8.53;;;3.90;99.90;;;;;;5050916;28;20632;-74
2024/01/07 05:45:18;;;;;;;11.07;8.23;;;4.00;99.90;;;;;;5050900;28;20185;-74
2024/01/07 05:47:44;;;;;;;13.43;8.87;;;4.00;99.90;;;;;;5051135;28;20227;-74
2024/01/07 05:50:10;;;;;;;12.43;8.77;;;4.00;99.90;;;;;;5050907;28;20184;-74
2024/01/07 05:52:36;;;;;;;11.83;8.80;;;3.90;99.90;;;;;;5050977;28;20547;-74
2024/01/07 05:55:02;;;;;;;10.80;8.80;;;3.90;99.90;;;;;;5050648;28;20208;-74
2024/01/07 05:57:28;;;;;;;10.50;8.13;;;3.90;99.90;;;;;;5050800;28;20173;-74
2024/01/07 05:59:53;;;;;;;10.40;8.53;;;3.90;99.90;;;;;;5051257;28;20204;-74
2024/01/07 06:02:19;;;;;;;12.27;8.90;;;4.00;99.90;;;;;;5051543;28;20178;-74
2024/01/07 06:04:44;;;;;;;15.27;8.63;;;4.00;99.90;;;;;;5050823;28;20264;-74
2024/01/07 06:07:10;;;;;;;12.40;9.23;;;3.90;99.90;;;;;;5050716;28;20166;-74
2024/01/07 06:09:36;;;;;;;12.33;9.07;;;4.00;99.90;;;;;;5050557;28;20185;-74
2024/01/07 06:12:01;;;;;;;10.27;8.67;;;3.90;99.90;;;;;;5050523;28;20208;-74
2024/01/07 06:14:27;;;;;;;14.13;9.60;;;4.00;99.90;;;;;;5050565;28;20584;-74
2024/01/07 06:16:53;;;;;;;11.77;9.23;;;4.00;99.90;;;;;;5050770;28;20190;-74
2024/01/07 06:19:19;;;;;;;14.33;9.57;;;3.90;99.90;;;;;;5051865;28;20640;-74
2024/01/07 06:21:45;;;;;;;12.33;9.47;;;4.00;99.90;;;;;;5054052;28;20177;-75
2024/01/07 06:24:11;;;;;;;11.40;9.10;;;4.00;99.90;;;;;;5054205;28;20177;-75
2024/01/07 06:26:37;;;;;;;11.40;8.73;;;3.90;99.90;;;;;;5054370;28;20256;-74
2024/01/07 06:29:03;;;;;;;11.53;9.17;;;3.90;99.90;;;;;;5054467;28;20177;-74
2024/01/07 06:31:29;;;;;;;12.03;9.00;;;4.00;99.90;;;;;;5054216;28;20173;-74
2024/01/07 06:33:58;;;;;;;10.53;8.77;;;4.00;99.90;;;;;;5054049;28;20256;-74
2024/01/07 06:36:26;;;;;;;13.93;9.67;;;4.00;99.90;;;;;;5054142;28;20173;-74
2024/01/07 06:38:52;;;;;;;12.10;9.13;;;4.00;99.90;;;;;;5052489;28;20656;-75
2024/01/07 06:41:18;;;;;;;10.40;8.87;;;4.00;99.90;;;;;;5041120;28;20216;-75
2024/01/07 06:43:44;;;;;;;13.67;9.33;;;4.00;99.90;;;;;;5049440;28;20540;-75
2024/01/07 06:46:10;;;;;;;9.90;8.80;;;4.00;99.90;;;;;;5040362;28;20181;-75
2024/01/07 06:48:36;;;;;;;11.87;9.40;;;4.00;99.90;;;;;;5054096;28;20162;-74
2024/01/07 06:51:01;;;;;;;14.40;9.10;;;4.00;99.90;;;;;;5046193;28;20217;-74
2024/01/07 06:53:27;;;;;;;11.43;9.17;;;4.00;99.90;;;;;;5048320;28;20212;-74
2024/01/07 06:55:53;;;;;;;12.03;9.40;;;4.00;99.90;;;;;;5044611;28;20264;-74
2024/01/07 06:58:19;;;;;;;14.17;9.67;;;4.00;99.90;;;;;;5052220;28;20181;-74
2024/01/07 07:00:44;;;;;;;10.53;8.97;;;4.00;99.90;;;;;;5050645;28;20174;-74
2024/01/07 07:03:11;;;;;;;13.17;9.23;;;4.00;99.90;;;;;;5033518;28;20564;-74
2024/01/07 07:05:36;;;;;;;11.93;10.17;;;4.00;99.90;;;;;;5033672;28;20208;-74
2024/01/07 07:08:02;;;;;;;13.93;10.17;;;4.00;99.90;;;;;;5034426;28;20202;-75
2024/01/07 07:10:28;;;;;;;15.17;10.60;;;4.00;99.90;;;;;;5053429;28;20165;-74
2024/01/07 07:12:54;;;;;;;12.73;9.73;;;4.00;99.90;;;;;;5053473;28;20521;-73
2024/01/07 07:15:19;;;;;;;14.77;10.40;;;4.10;99.90;;;;;;5052989;28;20572;-74
2024/01/07 07:17:45;;;;;;;15.13;10.10;;;4.10;99.90;;;;;;5053198;28;20222;-74
2024/01/07 07:20:11;;;;;;;17.30;10.50;;;4.10;99.90;;;;;;5053217;28;20212;-74
2024/01/07 07:22:37;;;;;;;15.00;10.30;;;4.10;99.90;;;;;;5053037;28;20201;-73
2024/01/07 07:25:03;;;;;;;12.07;10.30;;;4.20;99.90;;;;;;5052920;28;20701;-73
2024/01/07 07:27:28;;;;;;;14.83;10.70;;;4.20;99.90;;;;;;5052798;28;20284;-73
2024/01/07 07:29:54;;;;;;;13.20;10.20;;;4.10;99.90;;;;;;5051695;28;20204;-73
2024/01/07 07:32:20;;;;;;;13.10;9.83;;;4.10;99.90;;;;;;5052301;28;20532;-73
2024/01/07 07:34:47;;;;;;;16.30;10.87;;;4.20;99.90;;;;;;5052945;28;20219;-73
2024/01/07 07:37:13;;;;;;;12.53;10.30;;;4.20;99.90;;;;;;5052802;28;20222;-73
2024/01/07 07:39:39;;;;;;;12.77;10.10;;;4.10;99.90;;;;;;5052836;28;20678;-73
2024/01/07 07:42:04;;;;;;;15.40;10.30;;;4.10;99.90;;;;;;5052827;28;20173;-73
2024/01/07 07:44:30;;;;;;;13.07;10.83;;;4.10;99.90;;;;;;5052571;28;20176;-74
2024/01/07 07:46:56;;;;;;;14.20;10.50;;;4.20;99.90;;;;;;5052897;28;20177;-73
2024/01/07 07:49:21;;;;;;;15.17;10.27;;;4.20;99.90;;;;;;5052720;28;20196;-73
2024/01/07 07:51:47;;;;;;;13.63;10.70;;;4.20;99.90;;;;;;5052309;28;20232;-75
2024/01/07 07:54:13;;;;;;;15.30;10.50;;;4.30;99.90;;;;;;5052542;28;20232;-73
2024/01/07 07:56:38;;;;;;;14.73;10.13;;;4.30;99.90;;;;;;5052537;28;20524;-73
2024/01/07 07:59:04;;;;;;;13.73;10.27;;;4.20;99.90;;;;;;5047866;28;20173;-73
2024/01/07 08:01:30;;;;;;;12.83;9.20;;;4.20;99.90;;;;;;5050936;28;20169;-72
2024/01/07 08:03:56;;;;;;;16.93;9.83;;;4.20;99.90;;;;;;5052483;28;20177;-73
2024/01/07 08:06:21;;;;;;;12.87;9.43;;;4.30;99.90;;;;;;5050745;28;20252;-72
2024/01/07 08:08:47;;;;;;;12.27;9.17;;;4.20;99.90;;;;;;5052322;28;20682;-72
2024/01/07 08:11:13;;;;;;;13.37;9.47;;;4.30;99.90;;;;;;5050623;28;20177;-72
2024/01/07 08:13:38;;;;;;;13.40;9.40;;;4.30;99.90;;;;;;5050044;28;20269;-72
2024/01/07 08:16:05;;;;;;;13.73;9.40;;;4.30;99.90;;;;;;5043665;28;20178;-72
2024/01/07 08:18:31;;;;;;;14.30;9.00;;;4.30;99.90;;;;;;5033158;28;20210;-72
2024/01/07 08:20:57;;;;;;;12.37;8.57;;;4.30;99.90;;;;;;5036735;28;20181;-72
2024/01/07 08:23:24;;;;;;;10.47;8.87;;;4.40;99.90;;;;;;5044253;28;20196;-72
2024/01/07 08:25:51;;;;;;;13.17;9.10;;;4.30;99.90;;;;;;5046066;28;20173;-72
2024/01/07 08:28:17;;;;;;;11.47;8.57;;;4.40;99.90;;;;;;5049897;28;20200;-75
2024/01/07 08:30:44;;;;;;;10.57;8.23;;;4.40;99.90;;;;;;5051347;28;20173;-73
2024/01/07 08:33:11;;;;;;;11.97;8.00;;;4.40;99.90;;;;;;5048507;28;20227;-72
2024/01/07 08:35:36;;;;;;;12.03;8.20;;;4.50;99.90;;;;;;5051252;28;20178;-73
2024/01/07 08:38:03;;;;;;;11.57;8.00;;;4.50;99.90;;;;;;5050589;28;20674;-73
2024/01/07 08:40:29;;;;;;;11.17;7.80;;;4.50;99.90;;;;;;5049433;28;20857;-73
2024/01/07 08:42:55;;;;;;;9.73;7.20;;;4.60;99.90;;;;;;5051130;28;20214;-73
2024/01/07 08:45:21;;;;;;;9.67;7.40;;;4.60;99.90;;;;;;5051333;28;20176;-73
2024/01/07 08:47:47;;;;;;;11.93;7.47;;;4.70;99.90;;;;;;5050002;28;20242;-73
2024/01/07 08:50:13;;;;;;;10.77;7.37;;;4.70;99.90;;;;;;5050811;28;20173;-73
2024/01/07 08:52:38;;;;;;;10.90;7.23;;;4.80;99.90;;;;;;5051058;28;20177;-73
2024/01/07 08:55:06;;;;;;;12.47;6.77;;;4.90;99.90;;;;;;5050705;28;20220;-73
2024/01/07 08:57:32;;;;;;;10.93;6.80;;;5.00;99.90;;;;;;5051060;28;20169;-73
2024/01/07 08:59:58;;;;;;;8.90;6.57;;;5.20;99.90;;;;;;5050807;28;20181;-73
2024/01/07 09:02:25;;;;;;;11.37;7.13;;;5.90;99.90;;;;;;5049375;28;20234;-73
2024/01/07 09:04:51;;;;;;;8.90;7.03;;;6.50;99.90;;;;;;5046365;28;20174;-72
2024/01/07 09:07:17;;;;;;;10.70;7.00;;;6.30;99.90;;;;;;5031558;28;20264;-73
2024/01/07 09:09:42;;;;;;;7.70;6.70;;;6.40;99.90;;;;;;5031459;28;20209;-72
2024/01/07 09:12:08;;;;;;;10.83;7.17;;;7.10;99.90;;;;;;5031240;28;20683;-73
2024/01/07 09:14:34;;;;;;;11.13;7.30;;;7.60;99.90;;;;;;5031322;28;20561;-73
2024/01/07 09:16:59;;;;;;;10.47;6.50;;;7.30;99.90;;;;;;5048452;28;20201;-73
2024/01/07 09:19:25;;;;;;;8.73;5.77;;;7.10;99.90;;;;;;5051075;28;20681;-73
2024/01/07 09:21:51;;;;;;;11.27;5.77;;;7.00;99.90;;;;;;5051008;28;20196;-71
2024/01/07 09:24:16;;;;;;;8.33;5.87;;;7.00;99.90;;;;;;5051031;28;20299;-71
2024/01/07 09:26:42;;;;;;;10.53;5.90;;;7.20;99.90;;;;;;5036035;28;20200;-71
2024/01/07 09:29:08;;;;;;;8.87;4.37;;;7.80;99.90;;;;;;5035020;28;20185;-73
2024/01/07 09:31:33;;;;;;;9.90;4.30;;;8.90;99.90;;;;;;5034375;28;20546;-72
2024/01/07 09:33:59;;;;;;;5.90;4.00;;;8.10;99.90;;;;;;5030767;28;20608;-71
2024/01/07 09:36:25;;;;;;;5.50;3.03;;;8.30;99.90;;;;;;5044788;28;20185;-70
2024/01/07 09:38:51;;;;;;;6.90;3.30;;;7.80;99.90;;;;;;5044183;28;20239;-71
2024/01/07 09:41:17;;;;;;;5.83;2.63;;;7.70;99.90;;;;;;5030729;28;20166;-71
2024/01/07 09:43:42;;;;;;;6.10;2.90;;;7.70;99.90;;;;;;5030947;28;20629;-70
2024/01/07 09:46:08;;;;;;;7.40;3.23;;;7.60;99.90;;;;;;5036110;28;20185;-70
2024/01/07 09:48:34;;;;;;;6.10;2.63;;;7.50;99.90;;;;;;5036718;28;20212;-71
2024/01/07 09:51:02;;;;;;;5.37;2.73;;;7.80;99.90;;;;;;5049004;28;20761;-72
2024/01/07 09:53:35;;;;;;;6.27;2.77;;;7.90;99.90;;;;;;5050629;28;20176;-72
2024/01/07 09:56:19;;;;;;;8.43;3.27;;;7.90;99.90;;;;;;5053960;28;20176;-72
2024/01/07 09:58:49;;;;;;;5.63;2.87;;;8.30;99.90;;;;;;5038647;28;20192;-71
2024/01/07 10:01:17;;;;;;;6.50;3.17;;;8.70;99.90;;;;;;5039441;28;20206;-71
2024/01/07 10:03:42;;;;;;;9.20;2.70;;;8.50;99.90;;;;;;5046485;28;20173;-71
2024/01/07 10:06:10;;;;;;;10.27;3.00;;;8.10;99.90;;;;;;5040010;28;20176;-74
2024/01/07 10:08:35;;;;;;;8.30;2.50;;;7.40;99.90;;;;;;5034465;28;20228;-74
2024/01/07 10:11:02;;;;;;;7.23;2.70;;;6.90;99.90;;;;;;5053646;28;20169;-75
2024/01/07 10:13:28;;;;;;;9.17;2.80;;;6.80;99.90;;;;;;5052356;28;20702;-75
2024/01/07 10:15:54;;;;;;;6.53;2.73;;;6.70;99.90;;;;;;5052453;28;20185;-75
2024/01/07 10:18:20;;;;;;;6.33;2.47;;;6.60;99.90;;;;;;5054362;28;20269;-75
2024/01/07 10:20:46;;;;;;;7.70;2.40;;;6.60;99.90;;;;;;5052719;28;20229;-74
2024/01/07 10:23:12;;;;;;;6.40;2.63;;;6.60;99.90;;;;;;5043088;28;20540;-73
2024/01/07 10:25:37;;;;;;;7.40;2.50;;;6.60;99.90;;;;;;5047048;28;20590;-73
2024/01/07 10:28:04;;;;;;;4.13;1.70;;;6.70;99.90;;;;;;5053788;28;20177;-73
2024/01/07 10:30:30;;;;;;;6.40;2.20;;;6.70;99.90;;;;;;5054269;28;20177;-74
2024/01/07 10:32:59;;;;;;;5.17;2.17;;;6.90;99.90;;;;;;5053985;28;20252;-73
2024/01/07 10:35:33;;;;;;;3.93;2.07;;;7.10;99.90;;;;;;5052570;28;20209;-74
2024/01/07 10:38:02;;;;;;;4.27;2.60;;;7.30;99.90;;;;;;5053939;28;20196;-73
2024/01/07 10:40:30;;;;;;;5.83;2.33;;;7.10;99.90;;;;;;5053144;28;20318;-73
2024/01/07 10:42:56;;;;;;;6.60;2.43;;;6.80;99.90;;;;;;5052018;28;20260;-72
2024/01/07 10:45:22;;;;;;;4.07;2.43;;;7.20;99.90;;;;;;5034078;28;20184;-73
2024/01/07 10:47:50;;;;;;;6.40;2.87;;;8.50;99.90;;;;;;5051869;28;20382;-73
2024/01/07 10:50:18;;;;;;;7.10;2.53;;;8.80;99.90;;;;;;5040223;28;20675;-73
2024/01/07 10:52:50;;;;;;;4.27;2.57;;;9.10;99.90;;;;;;5042534;28;20173;-73
2024/01/07 10:55:18;;;;;;;5.23;2.53;;;8.40;99.90;;;;;;5038960;28;20213;-74
2024/01/07 10:57:49;;;;;;;7.30;2.23;;;8.60;99.90;;;;;;5053506;28;20657;-73
2024/01/07 11:00:19;;;;;;;3.33;2.20;;;8.40;99.90;;;;;;5053543;28;20169;-73
2024/01/07 11:03:19;;;;;;;4.17;2.40;;;8.50;99.90;;;;;;5053569;28;20180;-73
2024/01/07 11:05:57;;;;;;;6.03;2.30;;;8.50;99.90;;;;;;5052053;28;20244;-73
2024/01/07 11:08:34;;;;;;;5.90;1.90;;;8.30;99.90;;;;;;5040097;28;20269;-74
2024/01/07 11:11:07;;;;;;;3.40;2.10;;;8.50;99.90;;;;;;5036313;28;20251;-71
2024/01/07 11:13:38;;;;;;;5.60;2.03;;;8.60;99.90;;;;;;5037932;28;21562;-71
2024/01/07 11:16:14;;;;;;;3.07;1.70;;;10.10;99.90;;;;;;5052588;28;20169;-71
2024/01/07 11:18:51;;;;;;;4.50;2.10;;;11.10;99.90;;;;;;5053105;28;20710;-71
2024/01/07 11:21:26;;;;;;;6.57;2.30;;;11.50;99.90;;;;;;5052892;28;20492;-71
2024/01/07 11:23:53;;;;;;;3.67;1.43;;;12.20;99.90;;;;;;5051716;28;20689;-71
2024/01/07 11:26:20;;;;;;;3.53;1.30;;;13.30;99.90;;;;;;5052752;28;20536;-71
2024/01/07 11:28:53;;;;;;;2.60;1.43;;;14.00;99.90;;;;;;5053116;28;20174;-71
2024/01/07 11:31:20;;;;;;;4.57;1.20;;;14.10;99.90;;;;;;5052807;28;20682;-71
2024/01/07 11:33:47;;;;;;;5.53;1.10;;;12.70;99.90;;;;;;5052733;28;20296;-71
2024/01/07 11:36:17;;;;;;;5.07;1.23;;;12.00;99.90;;;;;;5052977;28;20691;-71
2024/01/07 11:38:49;;;;;;;4.40;1.20;;;11.60;99.90;;;;;;5052901;28;20239;-71
2024/01/07 11:41:16;;;;;;;4.23;1.10;;;11.80;99.90;;;;;;5053056;28;20173;-72
2024/01/07 11:44:01;;;;;;;5.20;1.13;;;13.20;99.90;;;;;;5053256;28;20291;-72
2024/01/07 11:46:34;;;;;;;4.10;1.00;;;12.90;99.90;;;;;;5053423;28;20180;-72
2024/01/07 11:49:00;;;;;;;5.90;1.00;;;12.90;99.90;;;;;;5054686;28;20227;-72
2024/01/07 11:51:34;;;;;;;10.13;1.30;;;13.00;99.90;;;;;;5052447;28;20225;-72
2024/01/07 11:54:01;;;;;;;3.33;1.15;;;13.40;99.90;;;;;;5052596;28;20679;-72
2024/01/07 11:56:27;;;;;;;4.50;1.13;;;14.10;99.90;;;;;;5052717;28;20169;-73
2024/01/07 11:58:53;;;;;;;2.80;1.38;;;15.50;99.90;;;;;;5052532;28;20173;-70
2024/01/07 12:01:19;;;;;;;3.17;1.38;;;16.70;99.90;;;;;;5052392;28;20246;-72
2024/01/07 12:03:46;;;;;;;8.00;1.30;;;17.70;99.90;;;;;;5051216;28;20200;-70
2024/01/07 12:06:15;;;;;;;2.55;1.30;;;19.00;99.90;;;;;;5052307;28;20304;-71
2024/01/07 12:08:42;;;;;;;7.18;1.20;;;19.80;99.90;;;;;;5052417;28;20193;-73
2024/01/07 12:11:12;;;;;;;5.47;1.60;;;18.40;99.90;;;;;;5052397;28;20173;-71
2024/01/07 12:13:38;;;;;;;4.63;1.30;;;18.90;99.90;;;;;;5052075;28;20278;-70
2024/01/07 12:16:07;;;;;;;3.97;1.23;;;18.30;99.90;;;;;;5052302;28;20169;-71
2024/01/07 12:18:33;;;;;;;4.82;1.27;;;18.50;1.00;;;;;;5051714;28;20208;-72
2024/01/07 12:20:59;;;;;;;4.03;1.38;;;18.80;1.00;;;;;;5052524;28;20551;-71
2024/01/07 12:23:26;;;;;;;4.97;1.50;;;20.60;1.00;;;;;;5052259;28;20177;-71
2024/01/07 12:25:53;;;;;;;7.07;1.58;;;20.80;99.90;;;;;;5052012;28;20173;-71
2024/01/07 12:28:19;;;;;;;4.22;1.25;;;18.80;99.90;;;;;;5052426;28;20177;-71
2024/01/07 12:30:45;;;;;;;5.03;1.58;;;17.20;99.90;;;;;;5051924;28;20173;-72
2024/01/07 12:33:11;;;;;;;5.50;1.70;;;13.70;1.00;;;;;;5051352;28;20174;-71
2024/01/07 12:35:37;;;;;;;4.70;1.80;;;12.20;1.00;;;;;;5051410;28;20568;-71
2024/01/07 12:38:04;;;;;;;3.30;1.58;;;11.40;99.90;;;;;;5051821;28;20271;-71
2024/01/07 12:40:30;;;;;;;6.68;1.60;;;11.60;1.00;;;;;;5046053;28;20174;-73
2024/01/07 12:42:57;;;;;;;7.75;1.70;;;10.30;1.00;;;;;;5042265;28;20544;-72
2024/01/07 12:45:22;;;;;;;4.35;1.05;;;10.00;99.90;;;;;;5050891;28;20202;-71
2024/01/07 12:47:48;;;;;;;3.08;1.23;;;9.30;11.10;;;;;;5051078;28;20735;-71